createdAt,value
2023-01-03T00:00:02.444Z,99.7
2023-01-03T00:15:02.775Z,99.8
2023-01-03T00:30:02.266Z,99.6
2023-01-03T00:45:02.675Z,99.6
2023-01-03T01:00:03.272Z,99.6
2023-01-03T01:15:02.535Z,99.6
2023-01-03T01:30:03.210Z,99.7
2023-01-03T01:45:02.406Z,99.6
2023-01-03T02:00:02.851Z,100.0
2023-01-03T02:15:02.290Z,100.0
2023-01-03T02:30:02.720Z,100.0
2023-01-03T02:45:03.293Z,100.0
2023-01-03T03:00:02.600Z,100.0
2023-01-03T03:15:03.243Z,100.0
2023-01-03T03:30:02.465Z,100.0
2023-01-03T03:45:03.154Z,100.0
2023-01-03T04:00:02.371Z,100.0
2023-01-03T04:15:02.805Z,100.0
2023-01-03T04:30:02.275Z,100.0
2023-01-03T04:45:02.677Z,100.0
2023-01-03T05:00:03.304Z,100.0
2023-01-03T05:15:02.548Z,100.0
2023-01-03T05:30:03.006Z,100.0
2023-01-03T05:45:02.458Z,100.0
2023-01-03T06:00:02.832Z,100.0
2023-01-03T06:15:03.289Z,100.0
2023-01-03T06:30:02.727Z,100.0
2023-01-03T06:45:03.300Z,100.0
2023-01-03T07:00:02.603Z,100.0
2023-01-03T07:15:03.264Z,100.0
2023-01-03T07:30:02.499Z,100.0
2023-01-03T07:45:02.932Z,100.0
2023-01-03T08:00:02.341Z,100.0
2023-01-03T08:15:02.805Z,100.0
2023-01-03T08:30:02.328Z,100.0
2023-01-03T08:45:02.680Z,100.0
2023-01-03T09:00:03.346Z,100.0
2023-01-03T09:15:02.564Z,100.0
2023-01-03T09:30:03.000Z,100.0
2023-01-03T09:45:02.456Z,100.0
2023-01-03T10:00:02.878Z,100.0
2023-01-03T10:15:02.382Z,100.0
2023-01-03T10:30:02.789Z,99.7
2023-01-03T10:45:03.361Z,99.4
2023-01-03T11:00:02.642Z,99.3
2023-01-03T11:15:03.090Z,99.4
2023-01-03T11:30:02.534Z,99.7
2023-01-03T11:45:02.959Z,99.7
2023-01-03T12:00:02.390Z,99.2
2023-01-03T12:15:02.829Z,98.3
2023-01-03T12:30:02.394Z,99.1
2023-01-03T12:45:02.695Z,99.3
2023-01-03T13:00:03.384Z,99.3
2023-01-03T13:15:02.582Z,99.3
2023-01-03T13:30:03.030Z,99.3
2023-01-03T13:45:02.462Z,99.3
2023-01-03T14:00:02.908Z,99.3
2023-01-03T14:15:02.423Z,99.3
2023-01-03T14:30:02.743Z,99.4
2023-01-03T14:45:03.428Z,99.4
2023-01-03T15:00:02.600Z,99.4
2023-01-03T15:15:03.078Z,99.3
2023-01-03T15:30:02.560Z,99.5
2023-01-03T15:45:02.949Z,99.4
2023-01-03T16:00:02.455Z,99.3
2023-01-03T16:15:02.789Z,99.3
2023-01-03T16:30:02.449Z,99.1
2023-01-03T16:45:02.733Z,98.6
2023-01-03T17:00:03.119Z,98.1
2023-01-03T17:15:02.523Z,97.0
2023-01-03T17:30:03.033Z,96.1
2023-01-03T17:45:02.464Z,95.3
2023-01-03T18:00:02.819Z,94.9
2023-01-03T18:15:02.454Z,94.4
2023-01-03T18:30:03.011Z,94.0
2023-01-03T18:45:02.142Z,93.7
2023-01-03T19:00:02.574Z,92.9
2023-01-03T19:15:03.016Z,92.0
2023-01-03T19:30:02.487Z,91.0
2023-01-03T19:45:02.899Z,89.8
2023-01-03T20:00:02.491Z,89.2
2023-01-03T20:15:07.326Z,88.6
2023-01-03T20:30:03.208Z,87.8
2023-01-03T20:45:02.638Z,86.4
2023-01-03T21:00:03.104Z,85.6
2023-01-03T21:15:02.506Z,85.1
2023-01-03T21:30:02.960Z,84.7
2023-01-03T21:45:02.526Z,84.6
2023-01-03T22:00:02.839Z,84.6
2023-01-03T22:15:02.514Z,85.0
2023-01-03T22:30:02.728Z,85.2
2023-01-03T22:45:03.152Z,85.3
2023-01-03T23:00:02.693Z,85.1
2023-01-03T23:15:02.027Z,84.8
2023-01-03T23:30:02.544Z,84.8
2023-01-03T23:45:02.885Z,84.7
